createdAt,value
2022-09-02T00:00:48.530Z,99249.83
2022-09-02T00:04:08.108Z,99247.06
2022-09-02T00:07:24.615Z,99248.77
2022-09-02T00:10:44.429Z,99250.61
2022-09-02T00:14:04.085Z,99255.15
2022-09-02T00:17:20.648Z,99252.13
2022-09-02T00:20:38.300Z,99257.33
2022-09-02T00:23:56.131Z,99256.85
2022-09-02T00:27:13.027Z,99254.38
2022-09-02T00:30:30.494Z,99251.72
2022-09-02T00:33:46.964Z,99255.38
2022-09-02T00:37:03.255Z,99243.80
2022-09-02T00:40:24.107Z,99249.91
2022-09-02T00:43:54.716Z,99245.78
2022-09-02T00:47:12.143Z,99239.00
2022-09-02T00:50:33.079Z,99239.55
2022-09-02T00:53:53.144Z,99235.08
2022-09-02T00:57:19.843Z,99234.45
2022-09-02T01:00:43.301Z,99236.63
2022-09-02T01:04:00.700Z,99232.13
2022-09-02T01:07:18.698Z,99235.48
2022-09-02T01:10:45.583Z,99237.13
2022-09-02T01:14:02.652Z,99239.66
2022-09-02T01:17:21.194Z,99236.34
2022-09-02T01:20:37.776Z,99231.06
2022-09-02T01:23:56.547Z,99230.07
2022-09-02T01:27:13.004Z,99232.72
2022-09-02T01:30:33.727Z,99234.77
2022-09-02T01:33:52.165Z,99242.85
2022-09-02T01:37:11.074Z,99228.95
2022-09-02T01:40:28.765Z,99235.27
2022-09-02T01:43:45.501Z,99246.23
2022-09-02T01:47:02.692Z,99236.63
2022-09-02T01:50:19.751Z,99246.06
2022-09-02T01:53:37.545Z,99242.10
2022-09-02T01:56:56.535Z,99242.43
2022-09-02T02:00:18.395Z,99241.80
2022-09-02T02:03:34.696Z,99237.98
2022-09-02T02:06:53.564Z,99247.78
2022-09-02T02:10:13.503Z,99236.33
2022-09-02T02:13:31.716Z,99243.29
2022-09-02T02:16:48.094Z,99240.98
2022-09-02T02:20:04.396Z,99248.28
2022-09-02T02:23:20.684Z,99251.61
2022-09-02T02:26:38.157Z,99239.70
2022-09-02T02:29:56.220Z,99240.83
2022-09-02T02:33:12.813Z,99233.20
2022-09-02T02:36:30.541Z,99230.23
2022-09-02T02:39:49.686Z,99232.39
2022-09-02T02:43:06.459Z,99225.11
2022-09-02T02:46:23.581Z,99224.61
2022-09-02T02:49:43.734Z,99220.97
2022-09-02T02:53:03.159Z,99222.14
2022-09-02T02:56:19.438Z,99213.69
2022-09-02T02:59:37.661Z,99223.45
2022-09-02T03:02:54.060Z,99220.30
2022-09-02T03:06:13.882Z,99218.64
2022-09-02T03:09:30.194Z,99224.13
2022-09-02T03:12:48.474Z,99214.19
2022-09-02T03:16:06.461Z,99211.54
2022-09-02T03:19:22.694Z,99221.16
2022-09-02T03:22:41.905Z,99220.80
2022-09-02T03:25:58.186Z,99215.17
2022-09-02T03:29:19.130Z,99216.13
2022-09-02T03:32:36.842Z,99218.64
2022-09-02T03:35:54.046Z,99230.23
2022-09-02T03:39:13.162Z,99216.80
2022-09-02T03:42:32.027Z,99231.36
2022-09-02T03:45:48.939Z,99228.25
2022-09-02T03:49:07.757Z,99231.05
2022-09-02T03:52:25.140Z,99232.88
2022-09-02T03:55:43.350Z,99237.34
2022-09-02T03:59:01.790Z,99231.08
2022-09-02T04:02:20.687Z,99233.88
2022-09-02T04:05:37.683Z,99241.19
2022-09-02T04:08:55.783Z,99248.97
2022-09-02T04:12:13.608Z,99240.52
2022-09-02T04:15:30.746Z,99250.80
2022-09-02T04:18:47.558Z,99244.97
2022-09-02T04:22:04.024Z,99249.95
2022-09-02T04:25:27.680Z,99260.70
2022-09-02T04:28:40.932Z,99263.18
2022-09-02T04:31:57.493Z,99264.55
2022-09-02T04:35:15.037Z,99276.28
2022-09-02T04:38:32.289Z,99266.30
2022-09-02T04:41:48.900Z,99265.73
2022-09-02T04:45:05.399Z,99268.38
2022-09-02T04:48:24.028Z,99272.00
2022-09-02T04:51:40.980Z,99269.47
2022-09-02T04:54:58.704Z,99269.59
2022-09-02T04:58:15.743Z,99270.38
2022-09-02T05:01:36.066Z,99267.02
2022-09-02T05:05:05.147Z,99270.16
2022-09-02T05:08:27.273Z,99273.48
2022-09-02T05:11:47.736Z,99265.33
2022-09-02T05:15:08.028Z,99263.64
2022-09-02T05:18:24.628Z,99269.25
2022-09-02T05:21:41.407Z,99274.04
2022-09-02T05:24:59.285Z,99275.81
2022-09-02T05:28:23.434Z,99269.50
2022-09-02T05:31:42.650Z,99270.61
2022-09-02T05:35:02.988Z,99266.95
2022-09-02T05:38:21.700Z,99276.24
2022-09-02T05:41:40.125Z,99269.38
2022-09-02T05:44:58.071Z,99268.19
2022-09-02T05:48:25.374Z,99269.84
2022-09-02T05:51:49.753Z,99267.14
2022-09-02T05:55:07.998Z,99269.40
2022-09-02T05:58:26.261Z,99269.88
2022-09-02T06:01:46.094Z,99267.84
2022-09-02T06:05:09.920Z,99273.38
2022-09-02T06:08:27.038Z,99274.25
2022-09-02T06:11:46.119Z,99275.89
2022-09-02T06:15:04.602Z,99277.28
2022-09-02T06:18:22.634Z,99278.10
2022-09-02T06:21:43.363Z,99284.19
2022-09-02T06:25:06.323Z,99276.06
2022-09-02T06:28:24.411Z,99283.48
2022-09-02T06:31:42.920Z,99285.13
2022-09-02T06:35:01.984Z,99290.36
2022-09-02T06:38:21.305Z,99294.95
2022-09-02T06:41:40.539Z,99301.09
2022-09-02T06:44:58.473Z,99302.55
2022-09-02T06:48:14.879Z,99307.34
2022-09-02T06:51:37.639Z,99308.14
2022-09-02T06:54:55.780Z,99307.25
2022-09-02T06:58:24.621Z,99312.06
2022-09-02T07:01:42.520Z,99321.32
2022-09-02T07:05:17.041Z,99309.48
2022-09-02T07:08:36.570Z,99308.87
2022-09-02T07:12:35.072Z,99313.42
2022-09-02T07:15:54.978Z,99319.78
2022-09-02T07:19:17.365Z,99313.96
2022-09-02T07:22:35.503Z,99319.72
2022-09-02T07:25:53.283Z,99316.38
2022-09-02T07:29:11.443Z,99310.40
2022-09-02T07:32:28.368Z,99328.34
2022-09-02T07:35:46.108Z,99319.17
2022-09-02T07:39:01.904Z,99327.73
2022-09-02T07:42:20.502Z,99326.74
2022-09-02T07:45:39.061Z,99331.78
2022-09-02T07:48:56.374Z,99331.19
2022-09-02T07:52:14.304Z,99323.66
2022-09-02T07:55:32.834Z,99327.39
2022-09-02T07:58:51.149Z,99337.23
2022-09-02T08:02:07.662Z,99322.08
2022-09-02T08:05:24.696Z,99321.58
2022-09-02T08:08:41.675Z,99326.63
2022-09-02T08:11:59.841Z,99327.22
2022-09-02T08:15:23.011Z,99322.75
2022-09-02T08:18:45.272Z,99327.88
2022-09-02T08:22:10.739Z,99322.54
2022-09-02T08:25:30.013Z,99326.27
2022-09-02T08:28:48.409Z,99329.92
2022-09-02T08:32:04.761Z,99322.53
2022-09-02T08:35:22.917Z,99315.27
2022-09-02T08:38:39.249Z,99318.39
2022-09-02T08:45:26.892Z,99308.98
2022-09-02T08:48:50.843Z,99319.06
2022-09-02T08:52:10.909Z,99310.55
2022-09-02T08:55:33.446Z,99316.95
2022-09-02T08:58:55.301Z,99304.09
2022-09-02T09:02:21.059Z,99303.91
2022-09-02T09:05:53.733Z,99292.12
2022-09-02T09:09:18.975Z,99294.15
2022-09-02T09:12:47.382Z,99302.27
2022-09-02T09:16:08.914Z,99299.45
2022-09-02T09:19:30.595Z,99293.44
2022-09-02T09:22:49.935Z,99292.36
2022-09-02T09:26:15.170Z,99310.17
2022-09-02T09:29:32.242Z,99287.03
2022-09-02T09:32:55.637Z,99286.03
2022-09-02T09:36:13.612Z,99287.25
2022-09-02T09:39:35.925Z,99292.78
2022-09-02T09:42:57.903Z,99278.58
2022-09-02T09:46:36.269Z,99279.09
2022-09-02T09:49:53.122Z,99273.22
2022-09-02T09:53:22.783Z,99260.92
2022-09-02T09:56:42.744Z,99260.09
2022-09-02T10:00:02.518Z,99264.78
2022-09-02T10:03:32.986Z,99256.11
2022-09-02T10:06:58.708Z,99259.88
2022-09-02T10:10:30.351Z,99246.41
2022-09-02T10:13:48.875Z,99249.92
2022-09-02T10:17:28.304Z,99244.88
2022-09-02T10:24:22.924Z,99253.66
2022-09-02T10:27:49.315Z,99242.67
2022-09-02T10:31:14.691Z,99239.62
2022-09-02T10:34:39.016Z,99228.26
2022-09-02T10:38:09.215Z,99242.20
2022-09-02T10:45:05.350Z,99229.20
2022-09-02T10:48:36.496Z,99223.92
2022-09-02T10:51:57.937Z,99235.40
2022-09-02T10:55:26.094Z,99238.08
2022-09-02T11:02:35.700Z,99243.05
2022-09-02T11:05:59.260Z,99224.52
2022-09-02T11:09:44.091Z,99230.86
2022-09-02T11:13:43.098Z,99211.11
2022-09-02T11:17:05.218Z,99223.36
2022-09-02T11:20:31.454Z,99216.75
2022-09-02T11:23:55.692Z,99214.13
2022-09-02T11:27:39.089Z,99224.80
2022-09-02T11:30:44.327Z,99224.92
2022-09-02T11:34:09.760Z,99205.25
2022-09-02T11:37:47.468Z,99210.63
2022-09-02T11:41:35.400Z,99199.63
2022-09-02T11:45:32.942Z,99189.91
2022-09-02T11:49:54.339Z,99192.78
2022-09-02T11:53:25.181Z,99197.34
2022-09-02T11:56:49.517Z,99195.03
2022-09-02T12:07:49.551Z,99189.42
2022-09-02T12:11:12.987Z,99193.48
2022-09-02T12:15:12.421Z,99184.59
2022-09-02T12:18:41.532Z,99193.92
2022-09-02T12:22:44.510Z,99191.10
2022-09-02T12:26:08.167Z,99170.64
2022-09-02T12:29:41.625Z,99169.37
2022-09-02T12:33:23.467Z,99158.20
2022-09-02T12:37:03.340Z,99167.97
2022-09-02T12:40:31.299Z,99150.55
2022-09-02T12:44:00.804Z,99156.38
2022-09-02T12:47:23.214Z,99148.18
2022-09-02T12:50:56.260Z,99146.17
2022-09-02T12:54:13.810Z,99145.84
2022-09-02T12:57:32.809Z,99137.17
2022-09-02T13:01:00.334Z,99146.41
2022-09-02T13:04:38.420Z,99142.99
2022-09-02T13:08:38.687Z,99135.27
2022-09-02T13:12:44.197Z,99129.48
2022-09-02T13:16:29.171Z,99128.43
2022-09-02T13:20:04.357Z,99132.29
2022-09-02T13:24:17.585Z,99125.95
2022-09-02T13:28:43.169Z,99123.06
2022-09-02T13:32:25.666Z,99122.89
2022-09-02T13:35:45.766Z,99116.03
2022-09-02T13:39:02.358Z,99120.00
2022-09-02T13:42:32.742Z,99126.42
2022-09-02T13:45:48.419Z,99126.87
2022-09-02T13:49:04.903Z,99130.13
2022-09-02T13:53:00.999Z,99116.70
2022-09-02T13:55:47.457Z,99108.63
2022-09-02T13:59:06.007Z,99112.94
2022-09-02T14:02:38.317Z,99114.34
2022-09-02T14:06:01.030Z,99108.39
2022-09-02T14:09:26.617Z,99103.83
2022-09-02T14:12:49.966Z,99105.60
2022-09-02T14:16:36.618Z,99112.38
2022-09-02T14:19:52.952Z,99105.36
2022-09-02T14:23:11.108Z,99101.74
2022-09-02T14:26:37.955Z,99099.05
2022-09-02T14:29:58.270Z,99104.66
2022-09-02T14:33:47.395Z,99104.06
2022-09-02T14:37:03.722Z,99094.96
2022-09-02T14:40:21.747Z,99095.77
2022-09-02T14:43:44.530Z,99098.82
2022-09-02T14:47:06.178Z,99101.39
2022-09-02T14:50:26.243Z,99097.54
2022-09-02T14:53:43.822Z,99095.53
2022-09-02T14:57:03.960Z,99081.97
2022-09-02T15:00:25.899Z,99080.53
2022-09-02T15:03:46.230Z,99088.38
2022-09-02T15:07:02.483Z,99088.38
2022-09-02T15:10:24.464Z,99087.94
2022-09-02T15:13:42.378Z,99090.27
2022-09-02T15:16:58.738Z,99089.63
2022-09-02T15:20:19.828Z,99089.27
2022-09-02T15:23:41.753Z,99089.27
2022-09-02T15:26:57.978Z,99085.17
2022-09-02T15:30:16.920Z,99080.40
2022-09-02T15:33:30.906Z,99080.40
2022-09-02T15:36:47.122Z,99083.09
2022-09-02T15:40:03.854Z,99081.91
2022-09-02T15:43:22.126Z,99082.95
2022-09-02T15:46:40.961Z,99089.01
2022-09-02T15:49:59.616Z,99080.71
2022-09-02T15:53:16.143Z,99077.69
2022-09-02T15:56:35.382Z,99074.77
2022-09-02T15:59:52.248Z,99076.85
2022-09-02T16:03:08.583Z,99071.34
2022-09-02T16:06:25.037Z,99082.33
2022-09-02T16:09:43.729Z,99083.60
2022-09-02T16:13:08.737Z,99076.82
2022-09-02T16:16:42.869Z,99075.17
2022-09-02T16:20:00.268Z,99070.25
2022-09-02T16:23:16.471Z,99070.48
2022-09-02T16:26:38.926Z,99068.03
2022-09-02T16:29:55.329Z,99070.95
2022-09-02T16:33:14.655Z,99066.02
2022-09-02T16:36:34.191Z,99071.02
2022-09-02T16:39:50.836Z,99078.03
2022-09-02T16:43:07.384Z,99069.38
2022-09-02T16:46:24.135Z,99075.20
2022-09-02T16:49:42.984Z,99071.69
2022-09-02T16:53:02.564Z,99066.78
2022-09-02T16:56:23.663Z,99056.71
2022-09-02T16:59:43.038Z,99054.27
2022-09-02T17:02:58.972Z,99059.48
2022-09-02T17:06:31.024Z,99059.55
2022-09-02T17:09:51.697Z,99056.30
2022-09-02T17:13:09.446Z,99062.47
2022-09-02T17:16:29.817Z,99068.06
2022-09-02T17:19:50.406Z,99063.16
2022-09-02T17:23:09.445Z,99068.16
2022-09-02T17:26:28.503Z,99070.90
2022-09-02T17:29:50.343Z,99067.98
2022-09-02T17:33:01.318Z,99069.48
2022-09-02T17:36:18.379Z,99065.99
2022-09-02T17:39:34.772Z,99064.17
2022-09-02T17:42:51.181Z,99069.77
2022-09-02T17:46:24.262Z,99070.42
2022-09-02T17:49:42.246Z,99070.86
2022-09-02T17:52:58.830Z,99064.91
2022-09-02T17:56:27.424Z,99075.03
2022-09-02T17:59:57.894Z,99066.84
2022-09-02T18:03:46.711Z,99079.06
2022-09-02T18:07:09.463Z,99076.80
2022-09-02T18:10:27.044Z,99082.44
2022-09-02T18:13:54.754Z,99088.26
2022-09-02T18:17:22.092Z,99088.33
2022-09-02T18:20:49.642Z,99084.42
2022-09-02T18:24:11.597Z,99089.24
2022-09-02T18:27:36.391Z,99075.06
2022-09-02T18:30:58.442Z,99083.17
2022-09-02T18:34:34.694Z,99088.37
2022-09-02T18:38:00.981Z,99087.59
2022-09-02T18:41:33.420Z,99083.32
2022-09-02T18:45:02.155Z,99088.73
2022-09-02T18:48:22.578Z,99090.38
2022-09-02T18:51:46.752Z,99084.00
2022-09-02T18:55:10.707Z,99088.80
2022-09-02T18:58:37.558Z,99088.21
2022-09-02T19:01:57.961Z,99082.88
2022-09-02T19:05:16.161Z,99085.59
2022-09-02T19:08:35.650Z,99092.02
2022-09-02T19:11:59.028Z,99084.63
2022-09-02T19:15:34.844Z,99089.58
2022-09-02T19:18:52.908Z,99092.47
2022-09-02T19:22:12.734Z,99087.53
2022-09-02T19:25:32.890Z,99091.45
2022-09-02T19:28:52.350Z,99083.24
2022-09-02T19:32:11.518Z,99086.14
2022-09-02T19:35:32.993Z,99096.03
2022-09-02T19:38:49.185Z,99095.82
2022-09-02T19:42:05.939Z,99092.73
2022-09-02T19:45:22.420Z,99107.14
2022-09-02T19:48:40.226Z,99106.52
2022-09-02T19:51:56.926Z,99109.02
2022-09-02T19:55:17.789Z,99103.08
2022-09-02T19:58:35.473Z,99105.34
2022-09-02T20:01:52.807Z,99111.53
2022-09-02T20:05:09.582Z,99109.09
2022-09-02T20:08:28.367Z,99110.72
2022-09-02T20:11:45.315Z,99101.69
2022-09-02T20:15:01.658Z,99102.70
2022-09-02T20:18:23.878Z,99100.25
2022-09-02T20:21:44.338Z,99102.70
2022-09-02T20:25:02.237Z,99095.92
2022-09-02T20:28:30.051Z,99100.03
2022-09-02T20:32:02.044Z,99095.92
2022-09-02T20:35:54.058Z,99095.09
2022-09-02T20:39:37.984Z,99095.92
2022-09-02T20:43:14.643Z,99092.63
2022-09-02T20:47:01.109Z,99091.81
2022-09-02T20:50:43.375Z,99092.44
2022-09-02T20:54:23.370Z,99090.78
2022-09-02T20:57:51.478Z,99093.89
2022-09-02T21:01:18.437Z,99099.00
2022-09-02T21:04:48.840Z,99093.88
2022-09-02T21:08:11.490Z,99101.70
2022-09-02T21:11:30.672Z,99101.07
2022-09-02T21:14:48.159Z,99095.95
2022-09-02T21:18:09.099Z,99094.31
2022-09-02T21:21:33.488Z,99104.77
2022-09-02T21:24:55.688Z,99108.89
2022-09-02T21:28:17.643Z,99104.14
2022-09-02T21:31:39.925Z,99103.13
2022-09-02T21:35:03.997Z,99108.87
2022-09-02T21:38:25.063Z,99103.31
2022-09-02T21:41:44.894Z,99107.22
2022-09-02T21:45:14.235Z,99100.64
2022-09-02T21:48:38.334Z,99107.01
2022-09-02T21:51:59.370Z,99109.44
2022-09-02T21:55:23.794Z,99114.34
2022-09-02T21:59:36.775Z,99114.77
2022-09-02T22:03:04.997Z,99111.45
2022-09-02T22:06:30.956Z,99116.72
2022-09-02T22:09:51.085Z,99106.66
2022-09-02T22:13:09.083Z,99110.35
2022-09-02T22:16:37.762Z,99099.47
2022-09-02T22:19:56.076Z,99104.80
2022-09-02T22:23:20.740Z,99108.70
2022-09-02T22:26:47.010Z,99101.08
2022-09-02T22:30:11.158Z,99099.03
2022-09-02T22:33:34.513Z,99097.38
2022-09-02T22:37:00.636Z,99090.16
2022-09-02T22:40:25.163Z,99094.44
2022-09-02T22:43:45.218Z,99089.08
2022-09-02T22:47:31.786Z,99087.00
2022-09-02T22:51:07.791Z,99088.23
2022-09-02T22:54:24.060Z,99086.12
2022-09-02T22:57:48.334Z,99078.53
2022-09-02T23:01:14.306Z,99073.57
2022-09-02T23:04:54.813Z,99078.09
2022-09-02T23:08:12.064Z,99071.11
2022-09-02T23:11:36.121Z,99077.89
2022-09-02T23:15:06.485Z,99079.55
2022-09-02T23:18:28.696Z,99084.16
2022-09-02T23:21:51.936Z,99084.61
2022-09-02T23:25:16.891Z,99085.55
2022-09-02T23:28:38.937Z,99088.65
2022-09-02T23:32:26.163Z,99094.42
2022-09-02T23:35:49.070Z,99085.21
2022-09-02T23:39:25.802Z,99076.34
2022-09-02T23:42:42.687Z,99086.52
2022-09-02T23:46:00.014Z,99080.59
2022-09-02T23:49:23.612Z,99089.86
2022-09-02T23:52:45.519Z,99086.41
2022-09-02T23:56:14.771Z,99089.34
2022-09-02T23:59:37.534Z,99081.87
